Fort Eustis, Virginia
Current Conditions -  °F | °C
As of 1:24 PM on Thursday 27 Nov 2014 (Local Time) from KFAF Reporting Station
Drizzle Drizzle  
Wind Chill:   Ceiling: 1200
Heat Index:   Visibility: 10mi
Dew Point:   Wind: 7mph
Humidity: 100%   Direction: 300°WNW
Pressure: 30.01"   Gusts: NA
Location:  37.13°N, 76.61°W
Report Text: KFAF 271824Z AUTO 30006KT 10SM -DZ BKN012 BKN019 OVC026 07/07 A3001 RMK AO2 CIG 012V019 $
Loading
Personal Weather Stations






























Interactive Weather Map New forecast layout! Learn more

10-Day Weather Forecast

Advertisements
Track Severe Weather on mobile